NOO2005 SKCC-SKBO
Flight info
| Callsign | NOO2005 |
|---|---|
| Flight time | 0h 50m |
| Altitude | 32000 |
| Route | TORAT2A TORAT DCT DOPLO DOPLO5W |
| Aircraft | A20N/M-SDE2E3FGHIRWXY/LB1 |
Departure
| Time | 2026-04-21 21:09 |
|---|---|
| Airport | Camilo Daza International Airport (SKCC) |
Arrival
| Time | 2026-04-21 21:59 |
|---|---|
| Airport | El Dorado International Airport (SKBO) |
| Time | Latitude | Longitude | Altitude | Speed | Heading |
|---|---|---|---|---|---|
| 2026-04-21 20:45 | 7.92810 | -72.50871 | 1106 ft | 0 kts | 205° |
| 2026-04-21 20:59 | 7.92816 | -72.50867 | 1106 ft | 2 kts | 205° |
| 2026-04-21 20:59 | 7.92830 | -72.50860 | 1106 ft | 2 kts | 224° |
| 2026-04-21 20:59 | 7.92837 | -72.50851 | 1106 ft | 2 kts | 236° |
| 2026-04-21 20:59 | 7.92844 | -72.50838 | 1106 ft | 2 kts | 254° |
| 2026-04-21 21:00 | 7.92846 | -72.50823 | 1106 ft | 2 kts | 271° |
| 2026-04-21 21:00 | 7.92844 | -72.50808 | 1106 ft | 2 kts | 290° |
| 2026-04-21 21:00 | 7.92841 | -72.50801 | 1106 ft | 1 kts | 299° |
| 2026-04-21 21:00 | 7.92839 | -72.50798 | 1106 ft | 0 kts | 297° |
| 2026-04-21 21:02 | 7.92842 | -72.50803 | 1106 ft | 1 kts | 297° |
| 2026-04-21 21:03 | 7.92848 | -72.50816 | 1106 ft | 3 kts | 293° |
| 2026-04-21 21:03 | 7.92863 | -72.50847 | 1106 ft | 4 kts | 296° |
| 2026-04-21 21:03 | 7.92872 | -72.50865 | 1106 ft | 4 kts | 296° |
| 2026-04-21 21:03 | 7.92860 | -72.50891 | 1106 ft | 6 kts | 212° |
| 2026-04-21 21:04 | 7.92820 | -72.50929 | 1106 ft | 9 kts | 233° |
| 2026-04-21 21:04 | 7.92789 | -72.50998 | 1106 ft | 12 kts | 249° |
| 2026-04-21 21:04 | 7.92769 | -72.51065 | 1106 ft | 7 kts | 246° |
| 2026-04-21 21:04 | 7.92736 | -72.51120 | 1106 ft | 10 kts | 238° |
| 2026-04-21 21:05 | 7.92688 | -72.51180 | 1106 ft | 11 kts | 196° |
| 2026-04-21 21:05 | 7.92605 | -72.51205 | 1106 ft | 13 kts | 196° |
| 2026-04-21 21:05 | 7.92507 | -72.51234 | 1106 ft | 16 kts | 197° |
| 2026-04-21 21:05 | 7.92392 | -72.51269 | 1106 ft | 18 kts | 195° |
| 2026-04-21 21:06 | 7.92265 | -72.51308 | 1106 ft | 19 kts | 197° |
| 2026-04-21 21:06 | 7.92129 | -72.51351 | 1106 ft | 21 kts | 197° |
| 2026-04-21 21:06 | 7.91983 | -72.51396 | 1106 ft | 22 kts | 197° |
| 2026-04-21 21:06 | 7.91860 | -72.51427 | 1106 ft | 12 kts | 184° |
| 2026-04-21 21:07 | 7.91794 | -72.51440 | 1106 ft | 7 kts | 249° |
| 2026-04-21 21:07 | 7.91831 | -72.51441 | 1106 ft | 6 kts | 0° |
| 2026-04-21 21:07 | 7.91841 | -72.51440 | 1106 ft | 0 kts | 16° |
| 2026-04-21 21:07 | 7.91847 | -72.51438 | 1106 ft | 0 kts | 16° |
| 2026-04-21 21:08 | 7.91873 | -72.51430 | 1106 ft | 24 kts | 16° |
| 2026-04-21 21:08 | 7.92307 | -72.51296 | 1106 ft | 102 kts | 17° |
| 2026-04-21 21:08 | 7.93203 | -72.51016 | 1115 ft | 163 kts | 16° |
| 2026-04-21 21:09 | 7.94333 | -72.50668 | 1676 ft | 172 kts | 15° |
| 2026-04-21 21:09 | 7.95440 | -72.50339 | 2550 ft | 167 kts | 15° |
| 2026-04-21 21:09 | 7.96550 | -72.50120 | 3271 ft | 170 kts | 2° |
| 2026-04-21 21:09 | 7.97771 | -72.50209 | 3827 ft | 184 kts | 349° |
| 2026-04-21 21:10 | 7.99055 | -72.50433 | 4286 ft | 196 kts | 352° |
| 2026-04-21 21:10 | 8.00430 | -72.50601 | 4781 ft | 208 kts | 353° |
| 2026-04-21 21:10 | 8.01922 | -72.50752 | 5192 ft | 224 kts | 354° |
| 2026-04-21 21:10 | 8.03532 | -72.50894 | 5566 ft | 246 kts | 355° |
| 2026-04-21 21:11 | 8.05301 | -72.51041 | 5959 ft | 264 kts | 355° |
| 2026-04-21 21:11 | 8.07192 | -72.51193 | 6417 ft | 279 kts | 355° |
| 2026-04-21 21:11 | 8.09121 | -72.51345 | 7075 ft | 284 kts | 355° |
| 2026-04-21 21:11 | 8.11106 | -72.51500 | 7836 ft | 287 kts | 355° |
| 2026-04-21 21:12 | 8.13074 | -72.51667 | 8590 ft | 288 kts | 351° |
| 2026-04-21 21:12 | 8.14993 | -72.52263 | 9289 ft | 291 kts | 330° |
| 2026-04-21 21:12 | 8.16531 | -72.53535 | 9993 ft | 293 kts | 308° |
| 2026-04-21 21:12 | 8.17483 | -72.55368 | 10556 ft | 301 kts | 285° |
| 2026-04-21 21:13 | 8.17612 | -72.57502 | 10872 ft | 318 kts | 261° |
| 2026-04-21 21:13 | 8.16909 | -72.59721 | 11246 ft | 333 kts | 249° |
| 2026-04-21 21:13 | 8.15996 | -72.61915 | 11774 ft | 341 kts | 245° |
| 2026-04-21 21:13 | 8.14915 | -72.64036 | 12479 ft | 343 kts | 240° |
| 2026-04-21 21:14 | 8.13632 | -72.66064 | 13177 ft | 345 kts | 235° |
| 2026-04-21 21:14 | 8.12154 | -72.67966 | 13774 ft | 350 kts | 229° |
| 2026-04-21 21:14 | 8.10473 | -72.69736 | 14460 ft | 352 kts | 223° |
| 2026-04-21 21:14 | 8.08604 | -72.71354 | 15052 ft | 357 kts | 218° |
| 2026-04-21 21:15 | 8.06573 | -72.72782 | 15665 ft | 361 kts | 212° |
| 2026-04-21 21:15 | 8.04378 | -72.74016 | 16281 ft | 364 kts | 206° |
| 2026-04-21 21:15 | 8.02042 | -72.75030 | 16939 ft | 366 kts | 200° |
| 2026-04-21 21:15 | 7.99625 | -72.75799 | 17550 ft | 368 kts | 194° |
| 2026-04-21 21:16 | 7.97147 | -72.76314 | 18122 ft | 372 kts | 188° |
| 2026-04-21 21:16 | 7.94555 | -72.76578 | 18727 ft | 374 kts | 182° |
| 2026-04-21 21:16 | 7.91968 | -72.76569 | 19317 ft | 377 kts | 176° |
| 2026-04-21 21:16 | 7.89367 | -72.76287 | 19851 ft | 381 kts | 171° |
| 2026-04-21 21:17 | 7.86762 | -72.75719 | 20363 ft | 385 kts | 164° |
| 2026-04-21 21:17 | 7.84210 | -72.74943 | 20945 ft | 387 kts | 164° |
| 2026-04-21 21:17 | 7.81554 | -72.74487 | 21488 ft | 391 kts | 179° |
| 2026-04-21 21:17 | 7.78874 | -72.74853 | 22029 ft | 395 kts | 198° |
| 2026-04-21 21:18 | 7.76434 | -72.76138 | 22585 ft | 398 kts | 218° |
| 2026-04-21 21:18 | 7.74571 | -72.78139 | 23118 ft | 401 kts | 233° |
| 2026-04-21 21:18 | 7.72960 | -72.80449 | 23661 ft | 403 kts | 235° |
| 2026-04-21 21:18 | 7.71374 | -72.82795 | 24140 ft | 407 kts | 235° |
| 2026-04-21 21:19 | 7.69772 | -72.85138 | 24629 ft | 410 kts | 235° |
| 2026-04-21 21:19 | 7.67987 | -72.87405 | 25107 ft | 413 kts | 224° |
| 2026-04-21 21:19 | 7.65770 | -72.89203 | 25576 ft | 414 kts | 211° |
| 2026-04-21 21:19 | 7.63188 | -72.90446 | 26038 ft | 416 kts | 199° |
| 2026-04-21 21:20 | 7.60430 | -72.91351 | 26505 ft | 418 kts | 197° |
| 2026-04-21 21:20 | 7.57643 | -72.92204 | 26925 ft | 420 kts | 196° |
| 2026-04-21 21:20 | 7.54878 | -72.93047 | 27338 ft | 423 kts | 196° |
| 2026-04-21 21:20 | 7.52076 | -72.93908 | 27745 ft | 425 kts | 197° |
| 2026-04-21 21:21 | 7.49259 | -72.94782 | 28257 ft | 424 kts | 197° |
| 2026-04-21 21:21 | 7.46455 | -72.95657 | 28838 ft | 421 kts | 197° |
| 2026-04-21 21:21 | 7.43692 | -72.96522 | 29379 ft | 419 kts | 197° |
| 2026-04-21 21:21 | 7.40911 | -72.97395 | 29898 ft | 418 kts | 197° |
| 2026-04-21 21:22 | 7.38171 | -72.98257 | 30405 ft | 416 kts | 197° |
| 2026-04-21 21:22 | 7.35408 | -72.99126 | 30862 ft | 415 kts | 197° |
| 2026-04-21 21:22 | 7.32683 | -72.99983 | 31266 ft | 415 kts | 197° |
| 2026-04-21 21:22 | 7.29936 | -73.00847 | 31653 ft | 416 kts | 196° |
| 2026-04-21 21:23 | 7.27157 | -73.01720 | 31913 ft | 417 kts | 196° |
| 2026-04-21 21:23 | 7.24409 | -73.02585 | 31921 ft | 417 kts | 196° |
| 2026-04-21 21:23 | 7.18898 | -73.04317 | 31925 ft | 416 kts | 196° |
| 2026-04-21 21:24 | 7.13362 | -73.06057 | 31927 ft | 416 kts | 196° |
| 2026-04-21 21:24 | 7.07850 | -73.07790 | 31932 ft | 416 kts | 196° |
| 2026-04-21 21:25 | 7.02333 | -73.09523 | 31940 ft | 416 kts | 196° |
| 2026-04-21 21:25 | 6.96827 | -73.11253 | 31946 ft | 416 kts | 196° |
| 2026-04-21 21:26 | 6.91320 | -73.12983 | 31949 ft | 416 kts | 196° |
| 2026-04-21 21:26 | 6.85819 | -73.14710 | 31951 ft | 416 kts | 196° |
| 2026-04-21 21:27 | 6.80333 | -73.16432 | 31951 ft | 416 kts | 196° |
| 2026-04-21 21:27 | 6.74813 | -73.18165 | 31951 ft | 416 kts | 196° |
| 2026-04-21 21:28 | 6.69296 | -73.19895 | 31951 ft | 416 kts | 196° |
| 2026-04-21 21:29 | 6.61051 | -73.22482 | 31957 ft | 416 kts | 196° |
| 2026-04-21 21:29 | 6.55527 | -73.24215 | 31965 ft | 416 kts | 196° |
| 2026-04-21 21:30 | 6.49996 | -73.25950 | 31973 ft | 416 kts | 197° |
| 2026-04-21 21:30 | 6.44498 | -73.27679 | 31976 ft | 416 kts | 196° |
| 2026-04-21 21:31 | 6.39004 | -73.29402 | 31978 ft | 416 kts | 196° |
| 2026-04-21 21:31 | 6.33496 | -73.31129 | 31974 ft | 417 kts | 197° |
| 2026-04-21 21:32 | 6.27938 | -73.32868 | 31972 ft | 418 kts | 196° |
| 2026-04-21 21:32 | 6.22344 | -73.34621 | 31961 ft | 419 kts | 196° |
| 2026-04-21 21:33 | 6.16805 | -73.36355 | 31956 ft | 419 kts | 196° |
| 2026-04-21 21:33 | 6.11274 | -73.38087 | 31953 ft | 419 kts | 196° |
| 2026-04-21 21:34 | 6.05700 | -73.39832 | 31953 ft | 419 kts | 196° |
| 2026-04-21 21:34 | 6.00154 | -73.41569 | 31961 ft | 419 kts | 196° |
| 2026-04-21 21:35 | 5.94621 | -73.43302 | 31981 ft | 419 kts | 196° |
| 2026-04-21 21:35 | 5.89107 | -73.45137 | 32005 ft | 419 kts | 200° |
| 2026-04-21 21:36 | 5.83800 | -73.47543 | 32022 ft | 420 kts | 206° |
| 2026-04-21 21:36 | 5.78823 | -73.50552 | 32030 ft | 421 kts | 213° |
| 2026-04-21 21:37 | 5.74115 | -73.53999 | 32033 ft | 421 kts | 215° |
| 2026-04-21 21:37 | 5.69407 | -73.57502 | 32033 ft | 421 kts | 215° |
| 2026-04-21 21:38 | 5.64733 | -73.60972 | 31838 ft | 424 kts | 215° |
| 2026-04-21 21:38 | 5.62356 | -73.62734 | 31074 ft | 428 kts | 215° |
| 2026-04-21 21:38 | 5.59955 | -73.64512 | 30354 ft | 430 kts | 215° |
| 2026-04-21 21:38 | 5.57558 | -73.66288 | 29654 ft | 432 kts | 215° |
| 2026-04-21 21:39 | 5.55131 | -73.68087 | 28951 ft | 433 kts | 216° |
| 2026-04-21 21:39 | 5.52720 | -73.69875 | 28254 ft | 434 kts | 216° |
| 2026-04-21 21:39 | 5.50326 | -73.71651 | 27555 ft | 435 kts | 216° |
| 2026-04-21 21:39 | 5.47890 | -73.73456 | 26932 ft | 433 kts | 216° |
| 2026-04-21 21:40 | 5.45498 | -73.75229 | 26451 ft | 428 kts | 216° |
| 2026-04-21 21:40 | 5.43243 | -73.77143 | 25947 ft | 425 kts | 226° |
| 2026-04-21 21:40 | 5.41458 | -73.79482 | 25455 ft | 421 kts | 239° |
| 2026-04-21 21:40 | 5.40231 | -73.82130 | 24973 ft | 418 kts | 249° |
| 2026-04-21 21:41 | 5.39289 | -73.84843 | 24504 ft | 415 kts | 251° |
| 2026-04-21 21:41 | 5.38388 | -73.87582 | 24029 ft | 411 kts | 251° |
| 2026-04-21 21:41 | 5.37496 | -73.90284 | 23558 ft | 408 kts | 251° |
| 2026-04-21 21:41 | 5.36602 | -73.92950 | 23091 ft | 405 kts | 251° |
| 2026-04-21 21:42 | 5.35694 | -73.95628 | 22615 ft | 402 kts | 251° |
| 2026-04-21 21:42 | 5.34792 | -73.98270 | 22225 ft | 396 kts | 251° |
| 2026-04-21 21:42 | 5.33918 | -74.00822 | 22086 ft | 383 kts | 251° |
| 2026-04-21 21:42 | 5.33060 | -74.03329 | 22060 ft | 377 kts | 251° |
| 2026-04-21 21:43 | 5.32209 | -74.05813 | 21942 ft | 376 kts | 251° |
| 2026-04-21 21:43 | 5.31363 | -74.08281 | 21411 ft | 377 kts | 251° |
| 2026-04-21 21:43 | 5.30516 | -74.10754 | 20925 ft | 375 kts | 251° |
| 2026-04-21 21:43 | 5.29668 | -74.13229 | 20460 ft | 373 kts | 251° |
| 2026-04-21 21:44 | 5.28838 | -74.15653 | 20012 ft | 370 kts | 251° |
| 2026-04-21 21:44 | 5.28003 | -74.18089 | 19560 ft | 367 kts | 251° |
| 2026-04-21 21:44 | 5.27185 | -74.20479 | 19118 ft | 364 kts | 251° |
| 2026-04-21 21:44 | 5.26362 | -74.22879 | 18674 ft | 361 kts | 251° |
| 2026-04-21 21:45 | 5.25556 | -74.25232 | 18243 ft | 358 kts | 251° |
| 2026-04-21 21:45 | 5.24753 | -74.27573 | 17879 ft | 348 kts | 251° |
| 2026-04-21 21:45 | 5.23943 | -74.29793 | 17676 ft | 332 kts | 243° |
| 2026-04-21 21:45 | 5.22582 | -74.31603 | 17603 ft | 327 kts | 219° |
| 2026-04-21 21:46 | 5.20599 | -74.32695 | 17623 ft | 328 kts | 199° |
| 2026-04-21 21:46 | 5.18389 | -74.33380 | 17655 ft | 329 kts | 196° |
| 2026-04-21 21:46 | 5.16168 | -74.34023 | 17675 ft | 329 kts | 196° |
| 2026-04-21 21:46 | 5.13964 | -74.34666 | 17683 ft | 329 kts | 197° |
| 2026-04-21 21:47 | 5.11760 | -74.35320 | 17685 ft | 329 kts | 197° |
| 2026-04-21 21:47 | 5.09553 | -74.35986 | 17683 ft | 329 kts | 197° |
| 2026-04-21 21:47 | 5.07380 | -74.36659 | 17669 ft | 329 kts | 197° |
| 2026-04-21 21:47 | 5.05164 | -74.37333 | 17367 ft | 331 kts | 197° |
| 2026-04-21 21:48 | 5.02983 | -74.37994 | 16934 ft | 330 kts | 197° |
| 2026-04-21 21:48 | 5.00796 | -74.38658 | 16534 ft | 327 kts | 197° |
| 2026-04-21 21:48 | 4.98654 | -74.39311 | 16148 ft | 325 kts | 197° |
| 2026-04-21 21:48 | 4.96487 | -74.39971 | 15762 ft | 322 kts | 197° |
| 2026-04-21 21:49 | 4.94387 | -74.40611 | 15548 ft | 313 kts | 197° |
| 2026-04-21 21:49 | 4.92331 | -74.41156 | 15440 ft | 302 kts | 186° |
| 2026-04-21 21:49 | 4.90293 | -74.41004 | 15306 ft | 293 kts | 162° |
| 2026-04-21 21:49 | 4.88412 | -74.40182 | 14992 ft | 296 kts | 153° |
| 2026-04-21 21:50 | 4.86599 | -74.39214 | 14581 ft | 296 kts | 152° |
| 2026-04-21 21:50 | 4.84808 | -74.38245 | 14218 ft | 295 kts | 153° |
| 2026-04-21 21:50 | 4.83005 | -74.37286 | 13870 ft | 293 kts | 153° |
| 2026-04-21 21:50 | 4.81197 | -74.36340 | 13537 ft | 290 kts | 153° |
| 2026-04-21 21:51 | 4.79425 | -74.35420 | 13309 ft | 283 kts | 153° |
| 2026-04-21 21:51 | 4.77727 | -74.34540 | 13194 ft | 272 kts | 153° |
| 2026-04-21 21:51 | 4.76083 | -74.33690 | 13187 ft | 263 kts | 153° |
| 2026-04-21 21:51 | 4.74483 | -74.32864 | 13180 ft | 255 kts | 154° |
| 2026-04-21 21:52 | 4.72912 | -74.32052 | 13181 ft | 251 kts | 154° |
| 2026-04-21 21:52 | 4.71374 | -74.31258 | 13276 ft | 247 kts | 153° |
| 2026-04-21 21:52 | 4.69917 | -74.30439 | 13268 ft | 234 kts | 147° |
| 2026-04-21 21:52 | 4.68710 | -74.29436 | 13194 ft | 218 kts | 135° |
| 2026-04-21 21:53 | 4.67726 | -74.28303 | 13186 ft | 215 kts | 130° |
| 2026-04-21 21:53 | 4.66752 | -74.27084 | 13209 ft | 224 kts | 129° |
| 2026-04-21 21:53 | 4.65771 | -74.25843 | 13200 ft | 225 kts | 129° |
| 2026-04-21 21:53 | 4.64779 | -74.24595 | 13189 ft | 226 kts | 129° |
| 2026-04-21 21:54 | 4.63769 | -74.23333 | 12917 ft | 226 kts | 129° |
| 2026-04-21 21:54 | 4.62763 | -74.21986 | 12589 ft | 224 kts | 123° |
| 2026-04-21 21:54 | 4.62046 | -74.20584 | 12284 ft | 220 kts | 112° |
| 2026-04-21 21:54 | 4.61598 | -74.19135 | 11945 ft | 214 kts | 104° |
| 2026-04-21 21:55 | 4.61271 | -74.17731 | 11577 ft | 201 kts | 103° |
| 2026-04-21 21:55 | 4.60980 | -74.16400 | 11287 ft | 192 kts | 103° |
| 2026-04-21 21:55 | 4.60693 | -74.15099 | 11047 ft | 192 kts | 103° |
| 2026-04-21 21:55 | 4.60399 | -74.13786 | 10792 ft | 192 kts | 103° |
| 2026-04-21 21:56 | 4.60253 | -74.12504 | 10517 ft | 181 kts | 88° |
| 2026-04-21 21:56 | 4.60460 | -74.11302 | 10262 ft | 168 kts | 69° |
| 2026-04-21 21:56 | 4.61043 | -74.10175 | 10045 ft | 167 kts | 50° |
| 2026-04-21 21:56 | 4.61864 | -74.09349 | 9825 ft | 167 kts | 32° |
| 2026-04-21 21:57 | 4.62879 | -74.08800 | 9617 ft | 165 kts | 15° |
| 2026-04-21 21:57 | 4.63978 | -74.08570 | 9429 ft | 160 kts | 358° |
| 2026-04-21 21:57 | 4.65063 | -74.08659 | 9240 ft | 157 kts | 344° |
| 2026-04-21 21:57 | 4.66091 | -74.09000 | 9035 ft | 155 kts | 330° |
| 2026-04-21 21:58 | 4.66999 | -74.09563 | 8927 ft | 153 kts | 317° |
| 2026-04-21 21:58 | 4.67700 | -74.10357 | 8859 ft | 152 kts | 304° |
| 2026-04-21 21:58 | 4.68321 | -74.11214 | 8687 ft | 151 kts | 304° |
| 2026-04-21 21:58 | 4.68950 | -74.12051 | 8517 ft | 151 kts | 306° |
| 2026-04-21 21:59 | 4.69577 | -74.12884 | 8373 ft | 141 kts | 309° |
| 2026-04-21 21:59 | 4.70048 | -74.13500 | 8366 ft | 71 kts | 307° |
| 2026-04-21 21:59 | 4.70162 | -74.13673 | 8366 ft | 0 kts | 242° |
| 2026-04-21 21:59 | 4.70158 | -74.13676 | 8366 ft | 1 kts | 220° |
| 2026-04-21 22:00 | 4.70146 | -74.13677 | 8366 ft | 2 kts | 168° |
| 2026-04-21 22:00 | 4.70117 | -74.13666 | 8366 ft | 5 kts | 155° |
| 2026-04-21 22:00 | 4.70074 | -74.13646 | 8366 ft | 8 kts | 155° |
| 2026-04-21 22:00 | 4.70015 | -74.13621 | 8366 ft | 10 kts | 157° |
| 2026-04-21 22:01 | 4.69950 | -74.13594 | 8366 ft | 9 kts | 158° |
| 2026-04-21 22:01 | 4.69899 | -74.13594 | 8366 ft | 7 kts | 236° |
| 2026-04-21 22:01 | 4.69909 | -74.13645 | 8366 ft | 7 kts | 302° |
| 2026-04-21 22:01 | 4.69941 | -74.13691 | 8366 ft | 8 kts | 307° |
| 2026-04-21 22:02 | 4.69976 | -74.13737 | 8366 ft | 8 kts | 308° |
| 2026-04-21 22:02 | 4.70013 | -74.13784 | 8366 ft | 8 kts | 307° |
| 2026-04-21 22:02 | 4.70049 | -74.13832 | 8366 ft | 8 kts | 307° |
| 2026-04-21 22:02 | 4.70086 | -74.13882 | 8366 ft | 9 kts | 306° |
| 2026-04-21 22:03 | 4.70125 | -74.13934 | 8366 ft | 9 kts | 307° |
| 2026-04-21 22:03 | 4.70164 | -74.13986 | 8366 ft | 9 kts | 307° |
| 2026-04-21 22:03 | 4.70204 | -74.14039 | 8366 ft | 9 kts | 307° |
| 2026-04-21 22:03 | 4.70245 | -74.14093 | 8366 ft | 9 kts | 307° |
| 2026-04-21 22:04 | 4.70287 | -74.14149 | 8366 ft | 10 kts | 307° |
| 2026-04-21 22:04 | 4.70329 | -74.14205 | 8366 ft | 10 kts | 307° |
| 2026-04-21 22:04 | 4.70372 | -74.14261 | 8366 ft | 10 kts | 305° |
| 2026-04-21 22:04 | 4.70395 | -74.14315 | 8366 ft | 8 kts | 260° |
| 2026-04-21 22:05 | 4.70356 | -74.14356 | 8366 ft | 8 kts | 213° |
| 2026-04-21 22:05 | 4.70307 | -74.14391 | 8366 ft | 8 kts | 216° |
| 2026-04-21 22:05 | 4.70257 | -74.14429 | 8366 ft | 9 kts | 217° |
| 2026-04-21 22:05 | 4.70206 | -74.14468 | 8366 ft | 9 kts | 216° |
| 2026-04-21 22:06 | 4.70151 | -74.14508 | 8366 ft | 9 kts | 217° |
| 2026-04-21 22:06 | 4.70096 | -74.14548 | 8366 ft | 10 kts | 217° |
| 2026-04-21 22:06 | 4.70040 | -74.14591 | 8366 ft | 10 kts | 214° |
| 2026-04-21 22:06 | 4.69989 | -74.14629 | 8366 ft | 4 kts | 217° |
| 2026-04-21 22:07 | 4.69968 | -74.14645 | 8366 ft | 3 kts | 215° |
| 2026-04-21 22:07 | 4.69947 | -74.14641 | 8366 ft | 3 kts | 141° |
| 2026-04-21 22:07 | 4.69928 | -74.14619 | 8366 ft | 4 kts | 128° |
| 2026-04-21 22:07 | 4.69909 | -74.14594 | 8366 ft | 1 kts | 127° |
| 2026-04-21 22:08 | 4.69907 | -74.14591 | 8366 ft | 0 kts | 127° |